LKTB/BRQ METAR and TAF weather

Enter ICAO airport designator
Station Type Date Time Source
LKTB METAR 2021/03/03 02:30 UTC NOAA

LKTB 030230Z 00000KT CAVOK M01/M02 Q1032 NOSIG


Station Type Date Time Source
LKTB Decoded METAR 2021/03/03 02:30 UTC NOAA

Brno / Turany, Czech Republic (LKTB) 49-09N 016-42E 246M
Mar 02, 2021 - 09:30 PM EST / 2021.03.03 0230 UTC
Wind: Calm:0
Visibility: greater than 7 mile(s):0
Temperature: 30 F (-1 C)
Dew Point: 28 F (-2 C)
Relative Humidity: 92%
Pressure (altimeter): 30.47 in. Hg (1032 hPa)
ob: LKTB 030230Z 00000KT CAVOK M01/M02 Q1032 NOSIG
cycle: 2

Station Type Date Time Source
LKTB TAF 2021/03/02 18:05 UTC NOAA

TAF LKTB 021700Z 0218/0400 VRB02KT CAVOK
BECMG 0218/0221 3000 BR SCT005
TEMPO 0221/0307 1200 BR SCT005 PROB30
TEMPO 0300/0307 0700 FZFG BKN002
BECMG 0307/0310 20006KT CAVOK
BECMG 0318/0320 VRB02KT 1200 BR SCT005
TEMPO 0320/0400 0400 FG BKN002

Example: see airport list